sensor_id;sensor_type;location;lat;lon;timestamp;pressure;altitude;pressure_sealevel;temperature
68342;BMP280;55668;52.310;21.066;2023-06-22T00:02:23;100810.0;;;21.6
68342;BMP280;55668;52.310;21.066;2023-06-22T00:18:18;100820.0;;;21.2
68342;BMP280;55668;52.310;21.066;2023-06-22T00:50:16;100810.0;;;20.9
68342;BMP280;55668;52.310;21.066;2023-06-22T01:21:30;100800.0;;;20.7
68342;BMP280;55668;52.310;21.066;2023-06-22T02:05:06;100790.0;;;20.4
68342;BMP280;55668;52.310;21.066;2023-06-22T02:22:16;100810.0;;;20.6
68342;BMP280;55668;52.310;21.066;2023-06-22T02:38:58;100830.0;;;20.5
68342;BMP280;55668;52.310;21.066;2023-06-22T02:51:28;100860.0;;;20.8
68342;BMP280;55668;52.310;21.066;2023-06-22T03:12:36;100870.0;;;20.9
68342;BMP280;55668;52.310;21.066;2023-06-22T03:21:49;100890.0;;;21.0
68342;BMP280;55668;52.310;21.066;2023-06-22T03:38:47;100890.0;;;21.1
68342;BMP280;55668;52.310;21.066;2023-06-22T04:09:34;100920.0;;;21.2
68342;BMP280;55668;52.310;21.066;2023-06-22T04:28:14;100920.0;;;21.3
68342;BMP280;55668;52.310;21.066;2023-06-22T04:39:58;100940.0;;;21.4
68342;BMP280;55668;52.310;21.066;2023-06-22T04:55:28;100930.0;;;21.5
68342;BMP280;55668;52.310;21.066;2023-06-22T05:11:14;100930.0;;;21.6
68342;BMP280;55668;52.310;21.066;2023-06-22T05:24:36;100930.0;;;21.7
68342;BMP280;55668;52.310;21.066;2023-06-22T05:55:29;100960.0;;;21.8
68342;BMP280;55668;52.310;21.066;2023-06-22T06:44:16;100990.0;;;22.0
68342;BMP280;55668;52.310;21.066;2023-06-22T06:57:04;100980.0;;;22.3
68342;BMP280;55668;52.310;21.066;2023-06-22T07:29:32;100980.0;;;24.3
68342;BMP280;55668;52.310;21.066;2023-06-22T07:42:42;100990.0;;;24.6
68342;BMP280;55668;52.310;21.066;2023-06-22T07:58:43;100980.0;;;25.5
68342;BMP280;55668;52.310;21.066;2023-06-22T08:14:51;100980.0;;;26.2
68342;BMP280;55668;52.310;21.066;2023-06-22T08:28:51;100990.0;;;25.9
68342;BMP280;55668;52.310;21.066;2023-06-22T08:45:56;100990.0;;;25.8
68342;BMP280;55668;52.310;21.066;2023-06-22T09:15:17;101000.0;;;26.0
68342;BMP280;55668;52.310;21.066;2023-06-22T09:32:22;100980.0;;;26.1
68342;BMP280;55668;52.310;21.066;2023-06-22T09:45:45;100970.0;;;26.2
68342;BMP280;55668;52.310;21.066;2023-06-22T10:04:23;100960.0;;;26.4
68342;BMP280;55668;52.310;21.066;2023-06-22T10:16:36;100960.0;;;26.7
68342;BMP280;55668;52.310;21.066;2023-06-22T10:47:42;100940.0;;;26.8
68342;BMP280;55668;52.310;21.066;2023-06-22T11:03:49;100940.0;;;26.9
68342;BMP280;55668;52.310;21.066;2023-06-22T11:19:31;100920.0;;;27.0
68342;BMP280;55668;52.310;21.066;2023-06-22T11:33:55;100920.0;;;27.1
68342;BMP280;55668;52.310;21.066;2023-06-22T11:51:08;100920.0;;;27.3
68342;BMP280;55668;52.310;21.066;2023-06-22T12:19:47;100920.0;;;27.4
68342;BMP280;55668;52.310;21.066;2023-06-22T12:50:47;100890.0;;;27.3
68342;BMP280;55668;52.310;21.066;2023-06-22T13:07:08;100900.0;;;27.4
68342;BMP280;55668;52.310;21.066;2023-06-22T13:20:59;100880.0;;;27.8
68342;BMP280;55668;52.310;21.066;2023-06-22T13:38:20;100880.0;;;27.6
68342;BMP280;55668;52.310;21.066;2023-06-22T13:53:19;100890.0;;;27.8
68342;BMP280;55668;52.310;21.066;2023-06-22T14:24:26;100890.0;;;27.5
68342;BMP280;55668;52.310;21.066;2023-06-22T14:38:41;100890.0;;;27.3
68342;BMP280;55668;52.310;21.066;2023-06-22T15:24:12;100870.0;;;27.4
68342;BMP280;55668;52.310;21.066;2023-06-22T15:40:06;100870.0;;;27.2
68342;BMP280;55668;52.310;21.066;2023-06-22T15:56:38;100860.0;;;27.1
68342;BMP280;55668;52.310;21.066;2023-06-22T16:11:04;100860.0;;;27.0
68342;BMP280;55668;52.310;21.066;2023-06-22T16:24:45;100860.0;;;26.9
68342;BMP280;55668;52.310;21.066;2023-06-22T16:42:08;100850.0;;;26.8
68342;BMP280;55668;52.310;21.066;2023-06-22T17:27:41;100820.0;;;26.4
68342;BMP280;55668;52.310;21.066;2023-06-22T18:15:14;100820.0;;;25.9
68342;BMP280;55668;52.310;21.066;2023-06-22T18:30:12;100830.0;;;25.6
68342;BMP280;55668;52.310;21.066;2023-06-22T18:43:25;100830.0;;;25.3
68342;BMP280;55668;52.310;21.066;2023-06-22T19:01:50;100830.0;;;25.1
68342;BMP280;55668;52.310;21.066;2023-06-22T19:16:45;100840.0;;;24.8
68342;BMP280;55668;52.310;21.066;2023-06-22T19:31:33;100840.0;;;24.7
68342;BMP280;55668;52.310;21.066;2023-06-22T19:47:20;100830.0;;;23.9
68342;BMP280;55668;52.310;21.066;2023-06-22T20:00:27;100830.0;;;23.4
68342;BMP280;55668;52.310;21.066;2023-06-22T20:15:19;100820.0;;;23.1
68342;BMP280;55668;52.310;21.066;2023-06-22T20:30:40;100810.0;;;22.8
68342;BMP280;55668;52.310;21.066;2023-06-22T20:49:48;100800.0;;;22.4
68342;BMP280;55668;52.310;21.066;2023-06-22T21:02:45;100800.0;;;22.2
68342;BMP280;55668;52.310;21.066;2023-06-22T21:18:32;100800.0;;;21.7
68342;BMP280;55668;52.310;21.066;2023-06-22T21:33:34;100800.0;;;21.5
68342;BMP280;55668;52.310;21.066;2023-06-22T21:47:17;100800.0;;;21.2
68342;BMP280;55668;52.310;21.066;2023-06-22T22:05:29;100810.0;;;20.9
68342;BMP280;55668;52.310;21.066;2023-06-22T22:21:38;100830.0;;;20.8
68342;BMP280;55668;52.310;21.066;2023-06-22T22:48:56;100830.0;;;20.4
68342;BMP280;55668;52.310;21.066;2023-06-22T23:04:41;100810.0;;;20.1
68342;BMP280;55668;52.310;21.066;2023-06-22T23:22:28;100790.0;;;19.7
